Denham, Australia
Current Conditions -  °F | °C
As of 10:00 PM on Wednesday 22 Oct 2014 (Local Time) from YCAR Reporting Station
Scattered Clouds Scattered Clouds  
Wind Chill: 70°   Ceiling: Unl
Heat Index: 70°   Visibility: 6mi
Dew Point: 61°   Wind: 13mph
Humidity: 73%   Direction: 220°SW
Pressure: 30.06"   Gusts: NA
Location:  25.93°S, 113.53°E
Report Text: YCAR 221400Z AUTO 22011KT 9999 // SCT022 21/16 Q1018
Loading
Personal Weather Stations






























Interactive Weather Map
Tropical Storm Tracking
New forecast layout! Learn more

10-Day Weather Forecast

Advertisements
Track Severe Weather on mobile